sensor_id;sensor_type;location;lat;lon;timestamp;P1;durP1;ratioP1;P2;durP2;ratioP2
5795;SDS011;2924;51.458;7.046;2022-12-07T00:03:43;30.03;;;19.83;;
5795;SDS011;2924;51.458;7.046;2022-12-07T00:06:10;28.30;;;20.40;;
5795;SDS011;2924;51.458;7.046;2022-12-07T00:08:37;28.87;;;20.37;;
5795;SDS011;2924;51.458;7.046;2022-12-07T00:11:04;30.43;;;21.20;;
5795;SDS011;2924;51.458;7.046;2022-12-07T00:13:34;22.57;;;17.30;;
5795;SDS011;2924;51.458;7.046;2022-12-07T00:16:01;24.20;;;18.90;;
5795;SDS011;2924;51.458;7.046;2022-12-07T00:18:35;33.70;;;19.67;;
5795;SDS011;2924;51.458;7.046;2022-12-07T00:21:11;27.70;;;18.30;;
5795;SDS011;2924;51.458;7.046;2022-12-07T00:23:39;29.50;;;19.77;;
5795;SDS011;2924;51.458;7.046;2022-12-07T00:26:06;30.13;;;20.83;;
5795;SDS011;2924;51.458;7.046;2022-12-07T00:28:37;31.23;;;20.83;;
5795;SDS011;2924;51.458;7.046;2022-12-07T00:31:03;30.90;;;20.87;;
5795;SDS011;2924;51.458;7.046;2022-12-07T00:33:31;31.07;;;20.53;;
5795;SDS011;2924;51.458;7.046;2022-12-07T00:35:58;30.20;;;21.77;;
5795;SDS011;2924;51.458;7.046;2022-12-07T00:38:27;35.63;;;21.47;;
5795;SDS011;2924;51.458;7.046;2022-12-07T00:40:55;32.70;;;20.10;;
5795;SDS011;2924;51.458;7.046;2022-12-07T00:43:25;48.20;;;25.27;;
5795;SDS011;2924;51.458;7.046;2022-12-07T00:45:51;39.37;;;25.30;;
5795;SDS011;2924;51.458;7.046;2022-12-07T00:48:17;41.20;;;24.77;;
5795;SDS011;2924;51.458;7.046;2022-12-07T00:50:43;39.53;;;24.77;;
5795;SDS011;2924;51.458;7.046;2022-12-07T00:53:09;37.03;;;25.80;;
5795;SDS011;2924;51.458;7.046;2022-12-07T00:55:35;38.60;;;25.73;;
5795;SDS011;2924;51.458;7.046;2022-12-07T00:58:01;39.40;;;25.67;;
5795;SDS011;2924;51.458;7.046;2022-12-07T01:00:27;42.07;;;27.47;;
5795;SDS011;2924;51.458;7.046;2022-12-07T01:02:53;41.20;;;26.40;;
5795;SDS011;2924;51.458;7.046;2022-12-07T01:05:18;36.77;;;24.27;;
5795;SDS011;2924;51.458;7.046;2022-12-07T01:07:44;35.90;;;26.03;;
5795;SDS011;2924;51.458;7.046;2022-12-07T01:10:11;43.50;;;27.60;;
5795;SDS011;2924;51.458;7.046;2022-12-07T01:12:37;35.90;;;26.23;;
5795;SDS011;2924;51.458;7.046;2022-12-07T01:15:03;50.63;;;30.23;;
5795;SDS011;2924;51.458;7.046;2022-12-07T01:17:29;51.40;;;31.17;;
5795;SDS011;2924;51.458;7.046;2022-12-07T01:19:55;44.30;;;28.90;;
5795;SDS011;2924;51.458;7.046;2022-12-07T01:22:21;49.57;;;30.70;;
5795;SDS011;2924;51.458;7.046;2022-12-07T01:24:46;51.03;;;30.40;;
5795;SDS011;2924;51.458;7.046;2022-12-07T01:27:12;47.03;;;30.13;;
5795;SDS011;2924;51.458;7.046;2022-12-07T01:29:39;46.10;;;30.17;;
5795;SDS011;2924;51.458;7.046;2022-12-07T01:32:04;44.80;;;30.33;;
5795;SDS011;2924;51.458;7.046;2022-12-07T01:34:30;45.63;;;29.67;;
5795;SDS011;2924;51.458;7.046;2022-12-07T01:36:56;55.73;;;31.53;;
5795;SDS011;2924;51.458;7.046;2022-12-07T01:39:22;46.53;;;29.67;;
5795;SDS011;2924;51.458;7.046;2022-12-07T01:41:48;47.60;;;29.20;;
5795;SDS011;2924;51.458;7.046;2022-12-07T01:44:18;49.00;;;30.30;;
5795;SDS011;2924;51.458;7.046;2022-12-07T01:46:45;46.90;;;29.63;;
5795;SDS011;2924;51.458;7.046;2022-12-07T01:49:16;44.63;;;29.50;;
5795;SDS011;2924;51.458;7.046;2022-12-07T01:52:00;44.87;;;27.40;;
5795;SDS011;2924;51.458;7.046;2022-12-07T01:54:27;49.17;;;29.63;;
5795;SDS011;2924;51.458;7.046;2022-12-07T01:56:53;48.23;;;30.53;;
5795;SDS011;2924;51.458;7.046;2022-12-07T01:59:21;58.63;;;29.90;;
5795;SDS011;2924;51.458;7.046;2022-12-07T02:01:50;51.80;;;30.13;;
5795;SDS011;2924;51.458;7.046;2022-12-07T02:04:17;45.57;;;27.60;;
5795;SDS011;2924;51.458;7.046;2022-12-07T02:06:43;44.80;;;28.90;;
5795;SDS011;2924;51.458;7.046;2022-12-07T02:09:10;45.90;;;27.50;;
5795;SDS011;2924;51.458;7.046;2022-12-07T02:11:37;50.03;;;28.60;;
5795;SDS011;2924;51.458;7.046;2022-12-07T02:14:03;42.03;;;27.47;;
5795;SDS011;2924;51.458;7.046;2022-12-07T02:27:44;38.80;;;25.63;;
5795;SDS011;2924;51.458;7.046;2022-12-07T02:30:19;46.33;;;26.00;;
5795;SDS011;2924;51.458;7.046;2022-12-07T02:38:04;43.67;;;26.87;;
5795;SDS011;2924;51.458;7.046;2022-12-07T02:43:30;42.73;;;26.77;;
5795;SDS011;2924;51.458;7.046;2022-12-07T02:46:07;57.00;;;29.47;;
5795;SDS011;2924;51.458;7.046;2022-12-07T02:48:36;50.37;;;28.30;;
5795;SDS011;2924;51.458;7.046;2022-12-07T02:51:03;45.23;;;26.97;;
5795;SDS011;2924;51.458;7.046;2022-12-07T02:53:30;44.27;;;25.33;;
5795;SDS011;2924;51.458;7.046;2022-12-07T02:55:57;42.40;;;27.20;;
5795;SDS011;2924;51.458;7.046;2022-12-07T03:01:03;65.70;;;27.67;;
5795;SDS011;2924;51.458;7.046;2022-12-07T03:03:36;41.70;;;24.43;;
5795;SDS011;2924;51.458;7.046;2022-12-07T03:06:09;39.60;;;24.50;;
5795;SDS011;2924;51.458;7.046;2022-12-07T03:09:01;39.07;;;25.10;;
5795;SDS011;2924;51.458;7.046;2022-12-07T03:11:49;41.60;;;24.90;;
5795;SDS011;2924;51.458;7.046;2022-12-07T03:14:30;41.23;;;25.87;;
5795;SDS011;2924;51.458;7.046;2022-12-07T03:19:28;45.33;;;24.77;;
5795;SDS011;2924;51.458;7.046;2022-12-07T03:21:59;40.33;;;25.10;;
5795;SDS011;2924;51.458;7.046;2022-12-07T03:24:29;38.97;;;24.67;;
5795;SDS011;2924;51.458;7.046;2022-12-07T03:27:06;51.27;;;25.27;;
5795;SDS011;2924;51.458;7.046;2022-12-07T03:29:59;42.73;;;26.17;;
5795;SDS011;2924;51.458;7.046;2022-12-07T03:32:36;38.83;;;23.40;;
5795;SDS011;2924;51.458;7.046;2022-12-07T03:35:11;38.07;;;23.80;;
5795;SDS011;2924;51.458;7.046;2022-12-07T03:37:44;34.60;;;24.17;;
5795;SDS011;2924;51.458;7.046;2022-12-07T03:40:15;41.90;;;24.47;;
5795;SDS011;2924;51.458;7.046;2022-12-07T03:42:41;53.17;;;27.13;;
5795;SDS011;2924;51.458;7.046;2022-12-07T03:45:08;45.83;;;25.87;;
5795;SDS011;2924;51.458;7.046;2022-12-07T03:47:35;46.33;;;26.87;;
5795;SDS011;2924;51.458;7.046;2022-12-07T03:52:56;60.77;;;27.73;;
5795;SDS011;2924;51.458;7.046;2022-12-07T03:55:34;48.47;;;26.07;;
5795;SDS011;2924;51.458;7.046;2022-12-07T03:58:06;43.83;;;28.83;;
5795;SDS011;2924;51.458;7.046;2022-12-07T04:00:35;48.17;;;28.00;;
5795;SDS011;2924;51.458;7.046;2022-12-07T04:03:01;42.07;;;24.30;;
5795;SDS011;2924;51.458;7.046;2022-12-07T04:05:27;55.60;;;26.60;;
5795;SDS011;2924;51.458;7.046;2022-12-07T04:07:53;44.23;;;24.00;;
5795;SDS011;2924;51.458;7.046;2022-12-07T04:10:19;40.80;;;26.63;;
5795;SDS011;2924;51.458;7.046;2022-12-07T04:12:44;43.10;;;25.93;;
5795;SDS011;2924;51.458;7.046;2022-12-07T04:15:10;41.93;;;23.43;;
5795;SDS011;2924;51.458;7.046;2022-12-07T04:17:36;53.90;;;28.13;;
5795;SDS011;2924;51.458;7.046;2022-12-07T04:20:02;46.10;;;26.13;;
5795;SDS011;2924;51.458;7.046;2022-12-07T04:22:29;42.67;;;24.70;;
5795;SDS011;2924;51.458;7.046;2022-12-07T04:24:54;52.17;;;27.10;;
5795;SDS011;2924;51.458;7.046;2022-12-07T04:27:20;46.60;;;24.90;;
5795;SDS011;2924;51.458;7.046;2022-12-07T04:29:46;52.37;;;26.97;;
5795;SDS011;2924;51.458;7.046;2022-12-07T04:32:11;44.67;;;24.60;;
5795;SDS011;2924;51.458;7.046;2022-12-07T04:34:37;55.90;;;25.90;;
5795;SDS011;2924;51.458;7.046;2022-12-07T04:37:03;36.00;;;22.67;;
5795;SDS011;2924;51.458;7.046;2022-12-07T04:39:29;45.17;;;23.73;;
5795;SDS011;2924;51.458;7.046;2022-12-07T04:41:56;39.63;;;24.43;;
5795;SDS011;2924;51.458;7.046;2022-12-07T04:44:22;42.77;;;23.13;;
5795;SDS011;2924;51.458;7.046;2022-12-07T04:46:49;46.57;;;21.90;;
5795;SDS011;2924;51.458;7.046;2022-12-07T04:49:16;43.07;;;22.70;;
5795;SDS011;2924;51.458;7.046;2022-12-07T04:51:42;36.97;;;21.67;;
5795;SDS011;2924;51.458;7.046;2022-12-07T04:54:08;39.27;;;22.13;;
5795;SDS011;2924;51.458;7.046;2022-12-07T04:56:34;40.00;;;22.80;;
5795;SDS011;2924;51.458;7.046;2022-12-07T04:59:00;42.30;;;22.57;;
5795;SDS011;2924;51.458;7.046;2022-12-07T05:01:27;32.87;;;20.27;;
5795;SDS011;2924;51.458;7.046;2022-12-07T05:03:53;40.23;;;20.30;;
5795;SDS011;2924;51.458;7.046;2022-12-07T05:06:18;44.70;;;22.53;;
5795;SDS011;2924;51.458;7.046;2022-12-07T05:08:44;41.90;;;21.63;;
5795;SDS011;2924;51.458;7.046;2022-12-07T05:11:10;50.73;;;23.57;;
5795;SDS011;2924;51.458;7.046;2022-12-07T05:13:55;42.03;;;20.97;;
5795;SDS011;2924;51.458;7.046;2022-12-07T05:16:22;37.50;;;20.03;;
5795;SDS011;2924;51.458;7.046;2022-12-07T05:18:47;39.27;;;21.70;;
5795;SDS011;2924;51.458;7.046;2022-12-07T05:21:13;38.53;;;21.17;;
5795;SDS011;2924;51.458;7.046;2022-12-07T05:23:38;52.80;;;22.73;;
5795;SDS011;2924;51.458;7.046;2022-12-07T05:26:04;39.87;;;20.83;;
5795;SDS011;2924;51.458;7.046;2022-12-07T05:28:30;43.47;;;23.07;;
5795;SDS011;2924;51.458;7.046;2022-12-07T05:30:55;49.03;;;24.23;;
5795;SDS011;2924;51.458;7.046;2022-12-07T05:33:21;34.23;;;21.90;;
5795;SDS011;2924;51.458;7.046;2022-12-07T05:35:47;36.67;;;21.40;;
5795;SDS011;2924;51.458;7.046;2022-12-07T05:38:12;43.70;;;21.90;;
5795;SDS011;2924;51.458;7.046;2022-12-07T05:40:38;39.40;;;20.47;;
5795;SDS011;2924;51.458;7.046;2022-12-07T05:43:03;44.40;;;21.13;;
5795;SDS011;2924;51.458;7.046;2022-12-07T05:45:29;34.73;;;19.83;;
5795;SDS011;2924;51.458;7.046;2022-12-07T05:47:55;40.70;;;21.37;;
5795;SDS011;2924;51.458;7.046;2022-12-07T05:50:20;47.23;;;19.73;;
5795;SDS011;2924;51.458;7.046;2022-12-07T05:52:46;32.10;;;19.63;;
5795;SDS011;2924;51.458;7.046;2022-12-07T05:55:12;41.07;;;19.77;;
5795;SDS011;2924;51.458;7.046;2022-12-07T05:57:38;34.30;;;17.47;;
5795;SDS011;2924;51.458;7.046;2022-12-07T06:00:04;34.13;;;19.33;;
5795;SDS011;2924;51.458;7.046;2022-12-07T06:02:30;35.00;;;19.37;;
5795;SDS011;2924;51.458;7.046;2022-12-07T06:04:56;35.90;;;17.90;;
5795;SDS011;2924;51.458;7.046;2022-12-07T06:07:22;31.27;;;19.20;;
5795;SDS011;2924;51.458;7.046;2022-12-07T06:09:47;34.93;;;18.73;;
5795;SDS011;2924;51.458;7.046;2022-12-07T06:12:14;34.20;;;18.87;;
5795;SDS011;2924;51.458;7.046;2022-12-07T06:14:59;41.13;;;19.37;;
5795;SDS011;2924;51.458;7.046;2022-12-07T06:17:24;46.00;;;20.60;;
5795;SDS011;2924;51.458;7.046;2022-12-07T06:19:50;36.77;;;17.83;;
5795;SDS011;2924;51.458;7.046;2022-12-07T06:22:16;32.53;;;16.07;;
5795;SDS011;2924;51.458;7.046;2022-12-07T06:24:42;34.73;;;17.07;;
5795;SDS011;2924;51.458;7.046;2022-12-07T06:27:08;31.20;;;17.47;;
5795;SDS011;2924;51.458;7.046;2022-12-07T06:29:34;32.50;;;17.50;;
5795;SDS011;2924;51.458;7.046;2022-12-07T06:32:00;29.03;;;15.50;;
5795;SDS011;2924;51.458;7.046;2022-12-07T06:34:26;32.60;;;17.00;;
5795;SDS011;2924;51.458;7.046;2022-12-07T06:36:52;30.43;;;16.80;;
5795;SDS011;2924;51.458;7.046;2022-12-07T06:39:24;40.23;;;18.70;;
5795;SDS011;2924;51.458;7.046;2022-12-07T06:41:51;36.03;;;18.10;;
5795;SDS011;2924;51.458;7.046;2022-12-07T06:44:17;34.23;;;17.97;;
5795;SDS011;2924;51.458;7.046;2022-12-07T06:46:43;27.53;;;16.17;;
5795;SDS011;2924;51.458;7.046;2022-12-07T06:49:09;33.80;;;17.87;;
5795;SDS011;2924;51.458;7.046;2022-12-07T06:51:34;36.10;;;17.23;;
5795;SDS011;2924;51.458;7.046;2022-12-07T06:54:02;27.07;;;15.47;;
5795;SDS011;2924;51.458;7.046;2022-12-07T06:56:28;27.57;;;16.00;;
5795;SDS011;2924;51.458;7.046;2022-12-07T06:58:54;30.07;;;13.40;;
5795;SDS011;2924;51.458;7.046;2022-12-07T07:01:20;23.90;;;15.50;;
5795;SDS011;2924;51.458;7.046;2022-12-07T07:03:46;30.00;;;13.93;;
5795;SDS011;2924;51.458;7.046;2022-12-07T07:06:12;34.93;;;15.70;;
5795;SDS011;2924;51.458;7.046;2022-12-07T07:08:39;26.00;;;13.93;;
5795;SDS011;2924;51.458;7.046;2022-12-07T07:11:06;26.67;;;13.70;;
5795;SDS011;2924;51.458;7.046;2022-12-07T07:13:32;28.07;;;14.23;;
5795;SDS011;2924;51.458;7.046;2022-12-07T07:15:58;28.73;;;13.67;;
5795;SDS011;2924;51.458;7.046;2022-12-07T07:18:24;25.77;;;14.60;;
5795;SDS011;2924;51.458;7.046;2022-12-07T07:20:51;26.60;;;13.97;;
5795;SDS011;2924;51.458;7.046;2022-12-07T07:23:17;32.90;;;15.77;;
5795;SDS011;2924;51.458;7.046;2022-12-07T07:25:43;34.90;;;14.93;;
5795;SDS011;2924;51.458;7.046;2022-12-07T07:28:10;29.83;;;15.90;;
5795;SDS011;2924;51.458;7.046;2022-12-07T07:30:36;29.17;;;17.67;;
5795;SDS011;2924;51.458;7.046;2022-12-07T07:33:02;35.67;;;16.67;;
5795;SDS011;2924;51.458;7.046;2022-12-07T07:35:29;32.97;;;17.03;;
5795;SDS011;2924;51.458;7.046;2022-12-07T07:37:55;28.50;;;16.93;;
5795;SDS011;2924;51.458;7.046;2022-12-07T07:40:21;31.23;;;15.27;;
5795;SDS011;2924;51.458;7.046;2022-12-07T07:42:48;34.63;;;16.77;;
5795;SDS011;2924;51.458;7.046;2022-12-07T07:45:18;28.10;;;13.53;;
5795;SDS011;2924;51.458;7.046;2022-12-07T07:47:44;27.00;;;14.57;;
5795;SDS011;2924;51.458;7.046;2022-12-07T07:50:10;27.70;;;14.43;;
5795;SDS011;2924;51.458;7.046;2022-12-07T07:52:36;32.10;;;15.77;;
5795;SDS011;2924;51.458;7.046;2022-12-07T07:55:01;31.57;;;16.33;;
5795;SDS011;2924;51.458;7.046;2022-12-07T07:57:27;35.83;;;16.80;;
5795;SDS011;2924;51.458;7.046;2022-12-07T07:59:53;32.67;;;15.50;;
5795;SDS011;2924;51.458;7.046;2022-12-07T08:02:21;32.47;;;16.00;;
5795;SDS011;2924;51.458;7.046;2022-12-07T08:04:47;25.50;;;14.47;;
5795;SDS011;2924;51.458;7.046;2022-12-07T08:07:13;26.87;;;14.50;;
5795;SDS011;2924;51.458;7.046;2022-12-07T08:09:39;22.80;;;14.13;;
5795;SDS011;2924;51.458;7.046;2022-12-07T08:12:05;25.73;;;13.77;;
5795;SDS011;2924;51.458;7.046;2022-12-07T08:14:31;25.30;;;15.10;;
5795;SDS011;2924;51.458;7.046;2022-12-07T08:16:57;22.03;;;14.50;;
5795;SDS011;2924;51.458;7.046;2022-12-07T08:19:23;27.17;;;14.97;;
5795;SDS011;2924;51.458;7.046;2022-12-07T08:21:48;26.67;;;16.23;;
5795;SDS011;2924;51.458;7.046;2022-12-07T08:24:14;24.70;;;14.80;;
5795;SDS011;2924;51.458;7.046;2022-12-07T08:26:40;29.73;;;14.47;;
5795;SDS011;2924;51.458;7.046;2022-12-07T08:29:06;26.93;;;14.47;;
5795;SDS011;2924;51.458;7.046;2022-12-07T08:31:32;28.40;;;15.23;;
5795;SDS011;2924;51.458;7.046;2022-12-07T08:33:57;25.43;;;13.03;;
5795;SDS011;2924;51.458;7.046;2022-12-07T08:36:23;25.40;;;14.60;;
5795;SDS011;2924;51.458;7.046;2022-12-07T08:38:49;27.63;;;14.43;;
5795;SDS011;2924;51.458;7.046;2022-12-07T08:41:15;22.80;;;13.67;;
5795;SDS011;2924;51.458;7.046;2022-12-07T08:43:41;20.63;;;13.70;;
5795;SDS011;2924;51.458;7.046;2022-12-07T08:46:16;27.83;;;14.47;;
5795;SDS011;2924;51.458;7.046;2022-12-07T08:49:11;23.80;;;12.47;;
5795;SDS011;2924;51.458;7.046;2022-12-07T08:51:45;20.80;;;12.30;;
5795;SDS011;2924;51.458;7.046;2022-12-07T08:54:13;28.23;;;13.47;;
5795;SDS011;2924;51.458;7.046;2022-12-07T08:56:40;24.93;;;13.57;;
5795;SDS011;2924;51.458;7.046;2022-12-07T08:59:07;24.90;;;15.20;;
5795;SDS011;2924;51.458;7.046;2022-12-07T09:01:33;28.07;;;14.40;;
5795;SDS011;2924;51.458;7.046;2022-12-07T09:03:58;21.67;;;13.97;;
5795;SDS011;2924;51.458;7.046;2022-12-07T09:06:24;26.73;;;13.63;;
5795;SDS011;2924;51.458;7.046;2022-12-07T09:08:51;31.50;;;14.80;;
5795;SDS011;2924;51.458;7.046;2022-12-07T09:11:21;25.00;;;14.67;;
5795;SDS011;2924;51.458;7.046;2022-12-07T09:13:47;19.33;;;13.20;;
5795;SDS011;2924;51.458;7.046;2022-12-07T09:16:13;19.20;;;13.77;;
5795;SDS011;2924;51.458;7.046;2022-12-07T09:18:38;24.57;;;12.37;;
5795;SDS011;2924;51.458;7.046;2022-12-07T09:21:04;28.60;;;13.73;;
5795;SDS011;2924;51.458;7.046;2022-12-07T09:23:30;26.80;;;11.80;;
5795;SDS011;2924;51.458;7.046;2022-12-07T09:25:59;24.83;;;12.70;;
5795;SDS011;2924;51.458;7.046;2022-12-07T09:28:28;23.83;;;11.63;;
5795;SDS011;2924;51.458;7.046;2022-12-07T09:30:54;23.13;;;12.40;;
5795;SDS011;2924;51.458;7.046;2022-12-07T09:33:20;20.40;;;10.73;;
5795;SDS011;2924;51.458;7.046;2022-12-07T09:35:46;21.60;;;11.60;;
5795;SDS011;2924;51.458;7.046;2022-12-07T09:38:13;22.57;;;12.50;;
5795;SDS011;2924;51.458;7.046;2022-12-07T09:40:39;22.07;;;12.07;;
5795;SDS011;2924;51.458;7.046;2022-12-07T09:43:10;19.00;;;10.27;;
5795;SDS011;2924;51.458;7.046;2022-12-07T09:45:38;20.83;;;10.77;;
5795;SDS011;2924;51.458;7.046;2022-12-07T09:48:04;22.30;;;10.80;;
5795;SDS011;2924;51.458;7.046;2022-12-07T09:50:31;20.33;;;9.13;;
5795;SDS011;2924;51.458;7.046;2022-12-07T09:53:06;19.70;;;10.17;;
5795;SDS011;2924;51.458;7.046;2022-12-07T09:55:34;13.80;;;8.77;;
5795;SDS011;2924;51.458;7.046;2022-12-07T09:58:02;25.80;;;9.87;;
5795;SDS011;2924;51.458;7.046;2022-12-07T10:00:29;18.63;;;9.50;;
5795;SDS011;2924;51.458;7.046;2022-12-07T10:02:55;19.60;;;8.73;;
5795;SDS011;2924;51.458;7.046;2022-12-07T10:05:24;15.13;;;9.07;;
5795;SDS011;2924;51.458;7.046;2022-12-07T10:07:54;22.07;;;8.87;;
5795;SDS011;2924;51.458;7.046;2022-12-07T10:10:25;14.20;;;7.57;;
5795;SDS011;2924;51.458;7.046;2022-12-07T10:15:23;17.33;;;6.73;;
5795;SDS011;2924;51.458;7.046;2022-12-07T10:18:13;16.07;;;7.10;;
5795;SDS011;2924;51.458;7.046;2022-12-07T10:21:04;10.37;;;5.80;;
5795;SDS011;2924;51.458;7.046;2022-12-07T10:23:34;22.00;;;6.80;;
5795;SDS011;2924;51.458;7.046;2022-12-07T10:32:04;11.67;;;5.90;;
5795;SDS011;2924;51.458;7.046;2022-12-07T10:34:35;13.60;;;6.60;;
5795;SDS011;2924;51.458;7.046;2022-12-07T10:39:48;8.20;;;5.27;;
5795;SDS011;2924;51.458;7.046;2022-12-07T10:42:18;11.17;;;4.57;;
5795;SDS011;2924;51.458;7.046;2022-12-07T10:44:49;13.97;;;4.90;;
5795;SDS011;2924;51.458;7.046;2022-12-07T11:06:26;10.30;;;4.53;;
5795;SDS011;2924;51.458;7.046;2022-12-07T11:26:00;14.73;;;5.87;;
5795;SDS011;2924;51.458;7.046;2022-12-07T11:28:41;17.97;;;5.97;;
5795;SDS011;2924;51.458;7.046;2022-12-07T11:33:51;16.50;;;5.53;;
5795;SDS011;2924;51.458;7.046;2022-12-07T11:36:40;14.90;;;6.30;;
5795;SDS011;2924;51.458;7.046;2022-12-07T11:39:20;9.57;;;5.80;;
5795;SDS011;2924;51.458;7.046;2022-12-07T11:47:54;12.70;;;6.37;;
5795;SDS011;2924;51.458;7.046;2022-12-07T11:50:51;9.80;;;5.87;;
5795;SDS011;2924;51.458;7.046;2022-12-07T11:53:33;7.60;;;5.37;;
5795;SDS011;2924;51.458;7.046;2022-12-07T11:56:07;17.80;;;5.80;;
5795;SDS011;2924;51.458;7.046;2022-12-07T12:04:18;11.43;;;4.70;;
5795;SDS011;2924;51.458;7.046;2022-12-07T12:06:54;7.53;;;4.60;;
5795;SDS011;2924;51.458;7.046;2022-12-07T12:18:43;5.80;;;3.23;;
5795;SDS011;2924;51.458;7.046;2022-12-07T12:21:22;8.50;;;3.30;;
5795;SDS011;2924;51.458;7.046;2022-12-07T12:23:58;11.70;;;4.00;;
5795;SDS011;2924;51.458;7.046;2022-12-07T12:26:31;12.03;;;4.33;;
5795;SDS011;2924;51.458;7.046;2022-12-07T12:29:00;8.67;;;3.90;;
5795;SDS011;2924;51.458;7.046;2022-12-07T12:31:34;5.93;;;3.23;;
5795;SDS011;2924;51.458;7.046;2022-12-07T12:34:10;7.67;;;4.43;;
5795;SDS011;2924;51.458;7.046;2022-12-07T12:37:41;12.03;;;3.63;;
5795;SDS011;2924;51.458;7.046;2022-12-07T12:42:50;6.20;;;3.20;;
5795;SDS011;2924;51.458;7.046;2022-12-07T12:50:22;7.40;;;3.07;;
5795;SDS011;2924;51.458;7.046;2022-12-07T12:58:34;11.73;;;3.60;;
5795;SDS011;2924;51.458;7.046;2022-12-07T13:03:52;11.80;;;3.97;;
5795;SDS011;2924;51.458;7.046;2022-12-07T13:08:56;12.50;;;4.73;;
5795;SDS011;2924;51.458;7.046;2022-12-07T13:11:38;10.00;;;3.07;;
5795;SDS011;2924;51.458;7.046;2022-12-07T13:19:58;9.10;;;4.10;;
5795;SDS011;2924;51.458;7.046;2022-12-07T13:25:11;7.97;;;3.83;;
5795;SDS011;2924;51.458;7.046;2022-12-07T13:27:47;7.77;;;4.20;;
5795;SDS011;2924;51.458;7.046;2022-12-07T13:30:22;5.60;;;3.97;;
5795;SDS011;2924;51.458;7.046;2022-12-07T13:32:55;7.10;;;4.00;;
5795;SDS011;2924;51.458;7.046;2022-12-07T13:35:35;11.97;;;4.77;;
5795;SDS011;2924;51.458;7.046;2022-12-07T13:38:05;8.80;;;3.93;;
5795;SDS011;2924;51.458;7.046;2022-12-07T13:40:41;9.80;;;3.70;;
5795;SDS011;2924;51.458;7.046;2022-12-07T13:43:14;9.43;;;4.73;;
5795;SDS011;2924;51.458;7.046;2022-12-07T13:45:41;12.07;;;4.80;;
5795;SDS011;2924;51.458;7.046;2022-12-07T13:48:35;11.30;;;4.13;;
5795;SDS011;2924;51.458;7.046;2022-12-07T13:51:12;5.67;;;3.27;;
5795;SDS011;2924;51.458;7.046;2022-12-07T13:53:56;7.90;;;3.37;;
5795;SDS011;2924;51.458;7.046;2022-12-07T13:56:28;10.70;;;4.23;;
5795;SDS011;2924;51.458;7.046;2022-12-07T13:58:58;8.33;;;4.30;;
5795;SDS011;2924;51.458;7.046;2022-12-07T14:01:24;4.10;;;3.40;;
5795;SDS011;2924;51.458;7.046;2022-12-07T14:03:50;7.63;;;3.90;;
5795;SDS011;2924;51.458;7.046;2022-12-07T14:06:18;7.27;;;4.03;;
5795;SDS011;2924;51.458;7.046;2022-12-07T14:08:50;12.10;;;4.93;;
5795;SDS011;2924;51.458;7.046;2022-12-07T14:11:30;6.23;;;3.53;;
5795;SDS011;2924;51.458;7.046;2022-12-07T14:13:57;8.03;;;3.27;;
5795;SDS011;2924;51.458;7.046;2022-12-07T14:18:52;12.60;;;5.20;;
5795;SDS011;2924;51.458;7.046;2022-12-07T14:21:20;8.27;;;4.50;;
5795;SDS011;2924;51.458;7.046;2022-12-07T14:26:37;15.57;;;3.40;;
5795;SDS011;2924;51.458;7.046;2022-12-07T14:31:49;9.73;;;4.60;;
5795;SDS011;2924;51.458;7.046;2022-12-07T14:34:15;9.30;;;3.17;;
5795;SDS011;2924;51.458;7.046;2022-12-07T14:36:41;10.97;;;3.57;;
5795;SDS011;2924;51.458;7.046;2022-12-07T14:39:06;13.83;;;4.90;;
5795;SDS011;2924;51.458;7.046;2022-12-07T14:41:32;12.93;;;4.70;;
5795;SDS011;2924;51.458;7.046;2022-12-07T14:44:17;11.33;;;3.67;;
5795;SDS011;2924;51.458;7.046;2022-12-07T14:46:47;22.67;;;4.83;;
5795;SDS011;2924;51.458;7.046;2022-12-07T14:49:13;10.30;;;4.50;;
5795;SDS011;2924;51.458;7.046;2022-12-07T14:51:39;12.60;;;4.60;;
5795;SDS011;2924;51.458;7.046;2022-12-07T14:54:07;10.20;;;4.90;;
5795;SDS011;2924;51.458;7.046;2022-12-07T14:56:42;12.77;;;4.17;;
5795;SDS011;2924;51.458;7.046;2022-12-07T14:59:09;15.53;;;4.73;;
5795;SDS011;2924;51.458;7.046;2022-12-07T15:01:36;16.60;;;6.63;;
5795;SDS011;2924;51.458;7.046;2022-12-07T15:04:02;10.53;;;5.10;;
5795;SDS011;2924;51.458;7.046;2022-12-07T15:06:27;14.53;;;5.10;;
5795;SDS011;2924;51.458;7.046;2022-12-07T15:08:53;24.63;;;9.53;;
5795;SDS011;2924;51.458;7.046;2022-12-07T15:11:20;22.13;;;9.57;;
5795;SDS011;2924;51.458;7.046;2022-12-07T15:13:46;13.67;;;4.97;;
5795;SDS011;2924;51.458;7.046;2022-12-07T15:16:30;13.17;;;4.50;;
5795;SDS011;2924;51.458;7.046;2022-12-07T15:18:56;5.70;;;4.00;;
5795;SDS011;2924;51.458;7.046;2022-12-07T15:21:21;18.00;;;6.13;;
5795;SDS011;2924;51.458;7.046;2022-12-07T15:23:47;22.03;;;6.80;;
5795;SDS011;2924;51.458;7.046;2022-12-07T15:26:13;16.00;;;6.73;;
5795;SDS011;2924;51.458;7.046;2022-12-07T15:28:39;11.70;;;5.23;;
5795;SDS011;2924;51.458;7.046;2022-12-07T15:31:11;18.43;;;7.20;;
5795;SDS011;2924;51.458;7.046;2022-12-07T15:33:38;27.17;;;8.23;;
5795;SDS011;2924;51.458;7.046;2022-12-07T15:36:04;10.57;;;5.50;;
5795;SDS011;2924;51.458;7.046;2022-12-07T15:38:30;7.43;;;4.40;;
5795;SDS011;2924;51.458;7.046;2022-12-07T15:40:56;6.23;;;3.60;;
5795;SDS011;2924;51.458;7.046;2022-12-07T15:43:22;9.40;;;4.83;;
5795;SDS011;2924;51.458;7.046;2022-12-07T15:46:06;8.03;;;3.87;;
5795;SDS011;2924;51.458;7.046;2022-12-07T15:48:32;17.60;;;4.23;;
5795;SDS011;2924;51.458;7.046;2022-12-07T15:51:04;8.30;;;4.27;;
5795;SDS011;2924;51.458;7.046;2022-12-07T15:53:31;7.93;;;3.30;;
5795;SDS011;2924;51.458;7.046;2022-12-07T15:55:58;7.40;;;4.67;;
5795;SDS011;2924;51.458;7.046;2022-12-07T15:58:24;9.13;;;4.20;;
5795;SDS011;2924;51.458;7.046;2022-12-07T16:00:49;8.77;;;3.67;;
5795;SDS011;2924;51.458;7.046;2022-12-07T16:03:15;12.10;;;5.70;;
5795;SDS011;2924;51.458;7.046;2022-12-07T16:05:41;18.77;;;7.37;;
5795;SDS011;2924;51.458;7.046;2022-12-07T16:08:06;13.63;;;5.70;;
5795;SDS011;2924;51.458;7.046;2022-12-07T16:10:32;23.67;;;10.90;;
5795;SDS011;2924;51.458;7.046;2022-12-07T16:12:59;18.50;;;8.30;;
5795;SDS011;2924;51.458;7.046;2022-12-07T16:15:24;12.07;;;6.00;;
5795;SDS011;2924;51.458;7.046;2022-12-07T16:17:51;8.30;;;4.83;;
5795;SDS011;2924;51.458;7.046;2022-12-07T16:20:18;8.33;;;4.80;;
5795;SDS011;2924;51.458;7.046;2022-12-07T16:22:44;31.03;;;19.27;;
5795;SDS011;2924;51.458;7.046;2022-12-07T16:25:10;12.77;;;3.93;;
5795;SDS011;2924;51.458;7.046;2022-12-07T16:27:35;11.50;;;3.83;;
5795;SDS011;2924;51.458;7.046;2022-12-07T16:30:01;10.23;;;4.00;;
5795;SDS011;2924;51.458;7.046;2022-12-07T16:32:27;14.30;;;4.50;;
5795;SDS011;2924;51.458;7.046;2022-12-07T16:34:52;18.73;;;4.00;;
5795;SDS011;2924;51.458;7.046;2022-12-07T16:37:18;14.03;;;3.10;;
5795;SDS011;2924;51.458;7.046;2022-12-07T16:39:43;6.37;;;3.17;;
5795;SDS011;2924;51.458;7.046;2022-12-07T16:42:09;11.70;;;4.57;;
5795;SDS011;2924;51.458;7.046;2022-12-07T16:44:35;13.23;;;4.80;;
5795;SDS011;2924;51.458;7.046;2022-12-07T16:47:00;11.67;;;4.03;;
5795;SDS011;2924;51.458;7.046;2022-12-07T16:49:26;31.87;;;4.70;;
5795;SDS011;2924;51.458;7.046;2022-12-07T16:51:51;12.73;;;4.10;;
5795;SDS011;2924;51.458;7.046;2022-12-07T16:54:17;12.37;;;5.07;;
5795;SDS011;2924;51.458;7.046;2022-12-07T16:56:43;8.73;;;5.00;;
5795;SDS011;2924;51.458;7.046;2022-12-07T16:59:08;11.07;;;3.90;;
5795;SDS011;2924;51.458;7.046;2022-12-07T17:01:34;8.30;;;3.70;;
5795;SDS011;2924;51.458;7.046;2022-12-07T17:04:01;13.33;;;4.20;;
5795;SDS011;2924;51.458;7.046;2022-12-07T17:06:28;9.33;;;4.10;;
5795;SDS011;2924;51.458;7.046;2022-12-07T17:08:54;6.70;;;3.03;;
5795;SDS011;2924;51.458;7.046;2022-12-07T17:11:22;10.43;;;3.80;;
5795;SDS011;2924;51.458;7.046;2022-12-07T17:13:53;14.93;;;4.23;;
5795;SDS011;2924;51.458;7.046;2022-12-07T17:16:38;6.77;;;2.97;;
5795;SDS011;2924;51.458;7.046;2022-12-07T17:19:08;6.80;;;3.23;;
5795;SDS011;2924;51.458;7.046;2022-12-07T17:21:35;13.23;;;3.53;;